Terminal Aerodrome Forecast
Issued by NWS

Home | Current Version | Previous Version | Text Only | Print | Product List | Glossary On
Versions: 1 2 3 4 5 6 7 8 9 10 11 12 13 14 15 16 17 18
000
FTUS43 KEAX 201728
TAFSTJ
TAF
KSTJ 201728Z 2018/2118 12007KT P6SM OVC005
     FM202000 12008KT P6SM OVC008
     FM210800 22006KT 4SM BR BKN040
     FM211500 22007KT P6SM SCT150=

USA.gov is the U.S. government's official web portal to all federal, state and local government web resources and services.